createdAt,value
2023-08-12T00:00:42.356Z,3.30
2023-08-12T00:03:09.438Z,3.00
2023-08-12T00:05:36.779Z,3.33
2023-08-12T00:08:03.371Z,3.50
2023-08-12T00:10:29.860Z,3.05
2023-08-12T00:12:56.189Z,3.38
2023-08-12T00:15:22.695Z,3.90
2023-08-12T00:17:49.236Z,3.92
2023-08-12T00:20:17.464Z,3.30
2023-08-12T00:22:43.875Z,3.42
2023-08-12T00:25:10.606Z,3.78
2023-08-12T00:27:38.535Z,4.05
2023-08-12T00:30:05.600Z,3.95
2023-08-12T00:32:32.033Z,4.10
2023-08-12T00:34:58.424Z,4.28
2023-08-12T00:37:24.790Z,4.43
2023-08-12T00:39:51.332Z,4.07
2023-08-12T00:42:17.668Z,4.28
2023-08-12T00:44:44.036Z,4.40
2023-08-12T00:47:10.789Z,5.80
2023-08-12T00:49:39.040Z,4.20
2023-08-12T00:52:05.524Z,4.53
2023-08-12T00:54:31.993Z,3.92
2023-08-12T00:56:58.459Z,4.35
2023-08-12T00:59:25.311Z,4.80
2023-08-12T01:01:51.750Z,4.43
2023-08-12T01:04:18.679Z,4.35
2023-08-12T01:06:46.226Z,4.55
2023-08-12T01:09:12.714Z,4.75
2023-08-12T01:11:45.260Z,4.60
2023-08-12T01:14:27.068Z,4.72
2023-08-12T01:16:58.034Z,4.47
2023-08-12T01:19:40.965Z,6.05
2023-08-12T01:22:09.278Z,5.45
2023-08-12T01:24:36.677Z,4.60
2023-08-12T01:27:03.354Z,5.45
2023-08-12T01:29:30.127Z,5.88
2023-08-12T01:31:58.858Z,5.60
2023-08-12T01:34:37.033Z,5.60
2023-08-12T01:37:05.218Z,5.43
2023-08-12T01:39:32.170Z,6.20
2023-08-12T01:41:58.969Z,6.03
2023-08-12T01:44:25.503Z,6.00
2023-08-12T01:46:51.968Z,5.63
2023-08-12T01:49:18.741Z,7.50
2023-08-12T01:51:45.159Z,6.28
2023-08-12T01:54:11.553Z,6.40
2023-08-12T01:56:37.984Z,6.72
2023-08-12T01:59:04.466Z,7.22
2023-08-12T02:01:30.858Z,7.22
2023-08-12T02:03:57.327Z,7.38
2023-08-12T02:06:23.768Z,7.70
2023-08-12T02:08:51.772Z,7.55
2023-08-12T02:11:18.656Z,7.05
2023-08-12T02:13:45.070Z,7.13
2023-08-12T02:16:11.581Z,7.05
2023-08-12T02:18:38.001Z,6.55
2023-08-12T02:21:04.473Z,7.22
2023-08-12T02:23:30.853Z,7.55
2023-08-12T02:25:57.293Z,7.47
2023-08-12T02:28:23.724Z,7.57
2023-08-12T02:30:50.051Z,8.15
2023-08-12T02:33:16.549Z,7.40
2023-08-12T02:35:43.872Z,7.07
2023-08-12T02:38:10.264Z,7.57
2023-08-12T02:40:36.588Z,7.43
2023-08-12T02:43:03.287Z,7.88
2023-08-12T02:45:29.792Z,7.90
2023-08-12T02:47:56.326Z,8.13
2023-08-12T02:50:22.786Z,7.50
2023-08-12T02:52:49.149Z,8.35
2023-08-12T02:55:15.550Z,8.85
2023-08-12T02:57:41.960Z,8.60
2023-08-12T03:00:09.113Z,8.68
2023-08-12T03:02:35.571Z,8.55
2023-08-12T03:05:01.971Z,8.93
2023-08-12T03:07:28.428Z,8.05
2023-08-12T03:09:54.809Z,9.07
2023-08-12T03:12:21.227Z,8.77
2023-08-12T03:14:47.644Z,8.52
2023-08-12T03:17:14.223Z,8.75
2023-08-12T03:19:40.815Z,9.50
2023-08-12T03:22:07.164Z,9.88
2023-08-12T03:24:33.622Z,9.57
2023-08-12T03:27:00.141Z,9.40
2023-08-12T03:29:26.633Z,10.15
2023-08-12T03:31:53.044Z,9.73
2023-08-12T03:34:19.459Z,8.52
2023-08-12T03:36:47.484Z,9.65
2023-08-12T03:39:13.857Z,10.05
2023-08-12T03:41:40.232Z,9.52
2023-08-12T03:44:06.900Z,10.35
2023-08-12T03:46:33.426Z,10.25
2023-08-12T03:48:59.849Z,9.52
2023-08-12T03:51:26.279Z,9.57
2023-08-12T03:53:52.627Z,9.48
2023-08-12T03:56:19.221Z,10.38
2023-08-12T03:58:46.090Z,9.77
2023-08-12T04:01:12.500Z,10.25
2023-08-12T04:03:38.903Z,9.43
2023-08-12T04:06:05.362Z,9.70
2023-08-12T04:08:33.491Z,10.45
2023-08-12T04:10:59.932Z,9.98
2023-08-12T04:13:26.399Z,8.75
2023-08-12T04:15:54.378Z,9.48
2023-08-12T04:18:20.945Z,9.95
2023-08-12T04:20:48.525Z,9.90
2023-08-12T04:23:14.970Z,10.45
2023-08-12T04:25:43.674Z,10.48
2023-08-12T04:28:11.021Z,10.00
2023-08-12T04:30:41.034Z,10.43
2023-08-12T04:33:07.446Z,12.18
2023-08-12T04:35:34.367Z,11.10
2023-08-12T04:38:01.725Z,10.88
2023-08-12T04:40:28.293Z,11.48
2023-08-12T04:42:54.644Z,11.30
2023-08-12T04:45:21.099Z,13.40
2023-08-12T04:47:47.526Z,13.13
2023-08-12T04:50:13.980Z,12.02
2023-08-12T04:52:40.442Z,13.48
2023-08-12T04:55:06.955Z,12.85
2023-08-12T04:57:33.430Z,12.02
2023-08-12T04:59:59.881Z,12.05
2023-08-12T05:02:26.570Z,12.45
2023-08-12T05:04:53.491Z,11.88
2023-08-12T05:07:20.179Z,11.88
2023-08-12T05:09:46.633Z,11.88
2023-08-12T05:12:13.426Z,11.98
2023-08-12T05:14:40.770Z,11.30
2023-08-12T05:17:07.194Z,11.43
2023-08-12T05:19:33.764Z,12.32
2023-08-12T05:22:00.122Z,11.70
2023-08-12T05:24:26.541Z,11.63
2023-08-12T05:26:52.991Z,11.23
2023-08-12T05:29:19.372Z,11.52
2023-08-12T05:31:45.843Z,10.90
2023-08-12T05:34:12.442Z,11.25
2023-08-12T05:36:38.797Z,9.85
2023-08-12T05:39:05.333Z,10.75
2023-08-12T05:41:31.659Z,10.55
2023-08-12T05:43:58.019Z,9.05
2023-08-12T05:46:24.488Z,9.45
2023-08-12T05:48:50.865Z,9.43
2023-08-12T05:51:17.767Z,10.05
2023-08-12T05:53:44.134Z,8.90
2023-08-12T05:56:10.594Z,10.13
2023-08-12T05:58:36.934Z,9.95
2023-08-12T06:01:03.478Z,8.75
2023-08-12T06:03:29.927Z,10.85
2023-08-12T06:05:56.437Z,11.23
2023-08-12T06:08:22.899Z,11.23
2023-08-12T06:10:49.310Z,10.18
2023-08-12T06:13:15.718Z,11.32
2023-08-12T06:15:42.151Z,10.82
2023-08-12T06:18:08.587Z,10.82
2023-08-12T06:20:35.090Z,10.07
2023-08-12T06:23:01.729Z,10.30
2023-08-12T06:25:28.220Z,10.00
2023-08-12T06:27:54.564Z,10.13
2023-08-12T06:30:20.997Z,8.82
2023-08-12T06:32:47.619Z,9.38
2023-08-12T06:35:14.026Z,8.35
2023-08-12T06:37:40.367Z,9.00
2023-08-12T06:40:09.006Z,8.43
2023-08-12T06:42:35.420Z,6.80
2023-08-12T06:45:01.874Z,6.43
2023-08-12T06:47:30.543Z,6.47
2023-08-12T06:49:57.044Z,7.13
2023-08-12T06:52:23.735Z,6.50
2023-08-12T06:54:50.244Z,6.53
2023-08-12T06:57:16.604Z,5.88
2023-08-12T06:59:43.020Z,6.38
2023-08-12T07:02:09.532Z,5.88
2023-08-12T07:04:36.184Z,5.82
2023-08-12T07:07:02.545Z,5.63
2023-08-12T07:09:28.909Z,5.45
2023-08-12T07:11:55.293Z,5.85
2023-08-12T07:14:21.717Z,5.65
2023-08-12T07:16:48.086Z,5.97
2023-08-12T07:19:16.826Z,5.47
2023-08-12T07:21:43.973Z,4.40
2023-08-12T07:24:10.400Z,4.13
2023-08-12T07:26:36.769Z,4.20
2023-08-12T07:29:03.783Z,4.35
2023-08-12T07:31:30.330Z,4.03
2023-08-12T07:33:56.863Z,3.50
2023-08-12T07:36:23.640Z,3.20
2023-08-12T07:38:50.087Z,3.80
2023-08-12T07:41:16.553Z,3.35
2023-08-12T07:43:42.948Z,3.13
2023-08-12T07:46:10.446Z,3.60
2023-08-12T07:48:38.488Z,3.08
2023-08-12T07:51:05.085Z,2.85
2023-08-12T07:53:31.642Z,2.88
2023-08-12T07:55:58.012Z,3.53
2023-08-12T07:58:24.408Z,2.70
2023-08-12T08:00:53.338Z,2.80
2023-08-12T08:03:19.659Z,2.67
2023-08-12T08:05:48.090Z,2.78
2023-08-12T08:08:14.806Z,2.60
2023-08-12T08:10:41.207Z,2.22
2023-08-12T08:13:07.558Z,3.00
2023-08-12T08:15:34.150Z,2.63
2023-08-12T08:18:02.292Z,2.70
2023-08-12T08:20:29.223Z,2.63
2023-08-12T08:22:56.333Z,2.20
2023-08-12T08:25:22.912Z,3.10
2023-08-12T08:27:49.337Z,2.45
2023-08-12T08:30:15.765Z,2.60
2023-08-12T08:32:42.468Z,2.47
2023-08-12T08:35:09.048Z,2.20
2023-08-12T08:37:35.458Z,2.10
2023-08-12T08:40:02.002Z,1.95
2023-08-12T08:42:28.969Z,1.90
2023-08-12T08:44:59.061Z,2.00
2023-08-12T08:47:28.423Z,1.80
2023-08-12T08:49:56.377Z,2.15
2023-08-12T08:52:23.896Z,1.90
2023-08-12T08:54:53.273Z,2.00
2023-08-12T08:57:23.348Z,2.10
2023-08-12T09:00:16.484Z,1.58
2023-08-12T09:02:44.666Z,1.10
2023-08-12T09:05:12.196Z,1.10
2023-08-12T09:07:39.260Z,1.20
2023-08-12T09:10:06.409Z,1.10
2023-08-12T09:12:33.814Z,0.90
2023-08-12T09:15:00.343Z,1.17
2023-08-12T09:17:27.129Z,0.88
2023-08-12T09:19:53.570Z,1.02
2023-08-12T09:22:20.080Z,1.23
2023-08-12T09:24:46.440Z,1.10
2023-08-12T09:27:12.899Z,1.05
2023-08-12T09:29:39.269Z,1.17
2023-08-12T09:32:19.484Z,1.00
2023-08-12T09:34:52.709Z,1.20
2023-08-12T09:37:19.884Z,1.20
2023-08-12T09:39:47.246Z,1.65
2023-08-12T09:42:14.213Z,2.03
2023-08-12T09:44:41.628Z,1.40
2023-08-12T09:47:09.487Z,1.35
2023-08-12T09:49:36.485Z,1.55
2023-08-12T09:52:03.911Z,1.73
2023-08-12T09:54:32.984Z,1.27
2023-08-12T09:57:00.226Z,1.60
2023-08-12T09:59:36.674Z,1.60
2023-08-12T10:02:08.353Z,1.58
2023-08-12T10:04:46.171Z,2.17
2023-08-12T10:07:15.715Z,1.23
2023-08-12T10:09:42.980Z,1.40
2023-08-12T10:12:10.356Z,1.83
2023-08-12T10:14:37.182Z,1.83
2023-08-12T10:17:06.086Z,1.40
2023-08-12T10:19:33.725Z,1.70
2023-08-12T10:22:00.684Z,2.03
2023-08-12T10:24:27.640Z,1.63
2023-08-12T10:26:54.571Z,1.70
2023-08-12T10:29:21.614Z,1.67
2023-08-12T10:31:48.781Z,1.30
2023-08-12T10:34:26.103Z,2.05
2023-08-12T10:37:02.696Z,2.13
2023-08-12T10:39:32.546Z,1.40
2023-08-12T10:41:59.383Z,1.50
2023-08-12T10:44:39.965Z,1.35
2023-08-12T10:47:08.999Z,2.40
2023-08-12T10:49:38.810Z,1.23
2023-08-12T10:52:05.283Z,1.83
2023-08-12T10:54:31.932Z,1.50
2023-08-12T10:57:04.803Z,2.15
2023-08-12T10:59:46.821Z,1.55
2023-08-12T11:02:20.608Z,1.55
2023-08-12T11:04:51.318Z,1.63
2023-08-12T11:07:21.782Z,1.92
2023-08-12T11:09:53.365Z,1.67
2023-08-12T11:12:28.280Z,1.75
2023-08-12T11:14:54.960Z,1.92
2023-08-12T11:17:28.523Z,1.42
2023-08-12T11:19:56.091Z,1.40
2023-08-12T11:22:22.542Z,1.40
2023-08-12T11:24:49.516Z,1.27
2023-08-12T11:27:15.966Z,1.25
2023-08-12T11:29:42.292Z,1.15
2023-08-12T11:32:09.315Z,1.45
2023-08-12T11:34:35.744Z,1.58
2023-08-12T11:37:05.574Z,1.38
2023-08-12T11:39:33.022Z,1.80
2023-08-12T11:41:59.666Z,1.50
2023-08-12T11:44:26.018Z,1.55
2023-08-12T11:46:52.528Z,1.23
2023-08-12T11:49:19.156Z,1.35
2023-08-12T11:51:48.114Z,1.50
2023-08-12T11:54:15.122Z,1.67
2023-08-12T11:56:41.984Z,1.52
2023-08-12T11:59:08.388Z,1.30
2023-08-12T12:01:35.334Z,1.10
2023-08-12T12:04:04.835Z,1.40
2023-08-12T12:06:37.195Z,1.30
2023-08-12T12:09:07.511Z,1.17
2023-08-12T12:11:34.006Z,1.35
2023-08-12T12:14:04.348Z,1.95
2023-08-12T12:16:52.151Z,1.42
2023-08-12T12:19:22.809Z,1.60
2023-08-12T12:21:53.161Z,1.10
2023-08-12T12:24:19.999Z,1.20
2023-08-12T12:26:48.138Z,1.70
2023-08-12T12:29:15.360Z,1.25
2023-08-12T12:31:42.347Z,1.42
2023-08-12T12:34:10.550Z,1.63
2023-08-12T12:36:37.786Z,1.33
2023-08-12T12:39:04.576Z,1.80
2023-08-12T12:41:31.482Z,1.25
2023-08-12T12:43:57.907Z,1.60
2023-08-12T12:46:24.507Z,1.20
2023-08-12T12:48:51.000Z,1.30
2023-08-12T12:51:17.842Z,1.88
2023-08-12T12:53:44.371Z,1.30
2023-08-12T12:56:10.813Z,1.60
2023-08-12T12:58:37.976Z,2.25
2023-08-12T13:01:05.626Z,1.20
2023-08-12T13:03:32.753Z,1.58
2023-08-12T13:05:59.512Z,2.03
2023-08-12T13:08:26.053Z,1.90
2023-08-12T13:10:52.769Z,1.45
2023-08-12T13:13:19.422Z,1.85
2023-08-12T13:15:46.735Z,1.80
2023-08-12T13:18:15.453Z,1.73
2023-08-12T13:20:41.822Z,2.72
2023-08-12T13:23:08.218Z,1.85
2023-08-12T13:25:34.909Z,1.73
2023-08-12T13:28:01.882Z,1.90
2023-08-12T13:30:28.523Z,1.67
2023-08-12T13:32:55.168Z,2.28
2023-08-12T13:35:21.993Z,1.92
2023-08-12T13:37:48.510Z,2.15
2023-08-12T13:40:16.611Z,1.60
2023-08-12T13:42:43.206Z,1.52
2023-08-12T13:45:10.932Z,1.65
2023-08-12T13:47:37.387Z,1.73
2023-08-12T13:50:03.981Z,1.60
2023-08-12T13:52:30.385Z,2.30
2023-08-12T13:54:56.838Z,1.55
2023-08-12T13:57:23.278Z,1.52
2023-08-12T13:59:49.748Z,2.00
2023-08-12T14:02:16.860Z,2.08
2023-08-12T14:04:43.287Z,1.42
2023-08-12T14:07:09.613Z,1.60
2023-08-12T14:09:36.045Z,1.77
2023-08-12T14:12:02.668Z,1.98
2023-08-12T14:14:30.758Z,1.60
2023-08-12T14:16:57.234Z,1.60
2023-08-12T14:19:23.725Z,2.22
2023-08-12T14:21:50.054Z,1.25
2023-08-12T14:24:16.847Z,1.35
2023-08-12T14:26:43.387Z,1.40
2023-08-12T14:29:10.376Z,1.45
2023-08-12T14:31:36.781Z,1.52
2023-08-12T14:34:04.342Z,1.60
2023-08-12T14:36:30.788Z,1.30
2023-08-12T14:38:57.118Z,1.70
2023-08-12T14:41:23.552Z,1.60
2023-08-12T14:43:49.950Z,1.83
2023-08-12T14:46:16.789Z,1.85
2023-08-12T14:48:43.188Z,1.58
2023-08-12T14:51:09.536Z,1.75
2023-08-12T14:53:36.721Z,1.63
2023-08-12T14:56:03.722Z,1.83
2023-08-12T14:58:30.113Z,1.75
2023-08-12T15:00:57.891Z,2.05
2023-08-12T15:03:24.463Z,2.38
2023-08-12T15:05:59.535Z,2.20
2023-08-12T15:10:52.176Z,1.55
2023-08-12T15:13:18.621Z,2.30
2023-08-12T15:15:48.223Z,1.65
2023-08-12T15:18:14.582Z,2.17
2023-08-12T15:20:41.320Z,2.05
2023-08-12T15:23:07.659Z,1.38
2023-08-12T15:25:34.002Z,1.83
2023-08-12T15:28:00.471Z,1.77
2023-08-12T15:30:26.941Z,2.22
2023-08-12T15:32:53.410Z,2.15
2023-08-12T16:01:18.505Z,3.70
2023-08-12T16:03:45.010Z,3.53
2023-08-12T16:06:11.502Z,2.10
2023-08-12T16:08:37.964Z,3.00
2023-08-12T16:11:04.394Z,2.60
2023-08-12T16:13:31.764Z,2.28
2023-08-12T16:15:58.697Z,2.03
2023-08-12T16:18:25.515Z,2.40
2023-08-12T16:20:52.037Z,1.88
2023-08-12T16:23:18.688Z,1.70
2023-08-12T16:25:45.449Z,1.75
2023-08-12T16:28:11.936Z,2.33
2023-08-12T16:30:38.593Z,1.90
2023-08-12T16:33:05.403Z,1.70
2023-08-12T16:35:31.922Z,1.63
2023-08-12T16:37:58.431Z,1.90
2023-08-12T16:40:24.931Z,2.00
2023-08-12T16:42:51.367Z,1.70
2023-08-12T16:45:18.237Z,1.60
2023-08-12T16:47:44.738Z,1.45
2023-08-12T16:50:11.210Z,2.83
2023-08-12T16:52:37.621Z,2.80
2023-08-12T16:55:05.193Z,1.70
2023-08-12T16:57:31.825Z,1.52
2023-08-12T16:59:58.200Z,1.70
2023-08-12T17:02:25.467Z,1.67
2023-08-12T17:04:51.946Z,1.48
2023-08-12T17:07:18.494Z,1.15
2023-08-12T17:09:47.353Z,2.13
2023-08-12T17:12:14.415Z,1.80
2023-08-12T17:14:41.120Z,1.65
2023-08-12T17:17:07.824Z,2.08
2023-08-12T17:19:34.423Z,1.83
2023-08-12T17:22:01.162Z,1.25
2023-08-12T17:24:27.622Z,1.80
2023-08-12T17:26:53.996Z,2.35
2023-08-12T17:29:20.545Z,1.65
2023-08-12T17:31:46.935Z,1.55
2023-08-12T17:34:13.354Z,1.65
2023-08-12T17:36:39.742Z,1.75
2023-08-12T17:39:06.221Z,1.80
2023-08-12T17:41:32.954Z,1.60
2023-08-12T17:43:59.387Z,1.95
2023-08-12T17:46:25.844Z,1.58
2023-08-12T17:48:52.250Z,1.55
2023-08-12T17:51:18.826Z,1.35
2023-08-12T17:53:46.123Z,2.00
2023-08-12T17:56:13.079Z,1.67
2023-08-12T17:58:39.560Z,1.50
2023-08-12T18:01:06.208Z,1.65
2023-08-12T18:03:33.108Z,1.80
2023-08-12T18:05:59.659Z,2.38
2023-08-12T18:08:26.643Z,2.47
2023-08-12T18:10:53.103Z,1.50
2023-08-12T18:13:19.516Z,1.67
2023-08-12T18:15:45.995Z,1.90
2023-08-12T18:18:12.398Z,1.90
2023-08-12T18:20:38.893Z,1.67
2023-08-12T18:23:05.823Z,1.98
2023-08-12T18:25:32.195Z,1.73
2023-08-12T18:27:58.621Z,1.83
2023-08-12T18:30:25.729Z,1.67
2023-08-12T18:32:52.767Z,1.75
2023-08-12T18:35:19.159Z,2.10
2023-08-12T18:37:45.481Z,2.20
2023-08-12T18:40:11.984Z,1.75
2023-08-12T18:42:38.616Z,2.03
2023-08-12T18:45:05.481Z,1.80
2023-08-12T18:47:34.050Z,2.28
2023-08-12T18:50:01.305Z,1.83
2023-08-12T18:52:27.723Z,2.10
2023-08-12T18:54:54.170Z,1.55
2023-08-12T18:57:20.504Z,1.88
2023-08-12T18:59:47.051Z,2.03
2023-08-12T19:02:13.713Z,2.22
2023-08-12T19:04:40.188Z,2.35
2023-08-12T19:07:06.639Z,2.50
2023-08-12T19:09:33.127Z,1.80
2023-08-12T19:11:59.476Z,2.20
2023-08-12T19:14:25.971Z,2.10
2023-08-12T19:16:52.389Z,2.55
2023-08-12T19:19:18.855Z,2.55
2023-08-12T19:21:45.259Z,2.33
2023-08-12T19:24:11.705Z,2.33
2023-08-12T19:26:38.342Z,2.72
2023-08-12T19:29:04.755Z,2.15
2023-08-12T19:31:31.147Z,3.40
2023-08-12T19:33:59.112Z,2.85
2023-08-12T19:36:25.626Z,2.83
2023-08-12T19:38:52.156Z,2.45
2023-08-12T19:41:18.644Z,2.47
2023-08-12T19:43:45.236Z,2.20
2023-08-12T19:46:12.084Z,2.40
2023-08-12T19:48:38.665Z,2.28
2023-08-12T19:51:05.105Z,3.08
2023-08-12T19:53:31.472Z,2.53
2023-08-12T19:55:57.879Z,2.47
2023-08-12T19:58:24.344Z,2.85
2023-08-12T20:00:50.852Z,2.50
2023-08-12T20:03:17.381Z,2.42
2023-08-12T20:05:43.900Z,2.45
2023-08-12T20:08:10.336Z,2.67
2023-08-12T20:10:36.799Z,2.80
2023-08-12T20:13:03.383Z,2.13
2023-08-12T20:15:30.680Z,2.00
2023-08-12T20:17:57.095Z,3.30
2023-08-12T20:20:23.506Z,2.33
2023-08-12T20:23:05.707Z,3.25
2023-08-12T20:25:33.172Z,2.65
2023-08-12T20:28:00.040Z,2.78
2023-08-12T20:30:27.157Z,2.10
2023-08-12T20:32:55.163Z,2.58
2023-08-12T20:35:22.189Z,2.40
2023-08-12T20:37:48.763Z,2.83
2023-08-12T20:40:15.452Z,2.40
2023-08-12T20:42:41.901Z,2.30
2023-08-12T20:45:08.481Z,2.10
2023-08-12T20:47:35.002Z,2.38
2023-08-12T20:50:02.403Z,3.33
2023-08-12T20:52:29.009Z,2.47
2023-08-12T20:54:55.475Z,2.78
2023-08-12T20:57:21.877Z,2.70
2023-08-12T20:59:48.546Z,2.67
2023-08-12T21:02:15.396Z,2.60
2023-08-12T21:04:42.401Z,2.45
2023-08-12T21:07:08.815Z,3.17
2023-08-12T21:09:35.472Z,3.17
2023-08-12T21:12:03.125Z,2.60
2023-08-12T21:14:29.499Z,2.78
2023-08-12T21:16:55.918Z,2.90
2023-08-12T21:19:22.291Z,2.85
2023-08-12T21:21:48.724Z,3.10
2023-08-12T21:24:15.144Z,2.15
2023-08-12T21:26:41.674Z,3.03
2023-08-12T21:29:08.090Z,2.72
2023-08-12T21:31:34.549Z,3.03
2023-08-12T21:34:00.984Z,2.53
2023-08-12T21:36:27.545Z,2.67
2023-08-12T21:38:53.896Z,3.08
2023-08-12T21:41:20.255Z,2.60
2023-08-12T21:43:47.119Z,2.78
2023-08-12T21:46:13.641Z,3.17
2023-08-12T21:48:40.049Z,3.30
2023-08-12T21:51:08.979Z,2.92
2023-08-12T21:53:35.779Z,2.97
2023-08-12T21:56:02.173Z,2.72
2023-08-12T21:58:28.606Z,2.65
2023-08-12T22:00:56.437Z,2.53
2023-08-12T22:03:22.923Z,2.67
2023-08-12T22:05:51.623Z,2.90
2023-08-12T22:08:18.457Z,2.95
2023-08-12T22:10:45.497Z,2.72
2023-08-12T22:13:11.928Z,2.63
2023-08-12T22:15:38.382Z,3.25
2023-08-12T22:18:05.012Z,2.80
2023-08-12T22:20:31.542Z,3.25
2023-08-12T22:22:57.952Z,3.08
2023-08-12T22:25:24.490Z,3.13
2023-08-12T22:27:52.288Z,2.97
2023-08-12T22:30:18.690Z,3.38
2023-08-12T22:32:45.822Z,3.33
2023-08-12T22:35:12.277Z,3.20
2023-08-12T22:37:38.688Z,3.38
2023-08-12T22:40:06.311Z,2.65
2023-08-12T22:42:33.068Z,3.45
2023-08-12T22:44:59.685Z,3.28
2023-08-12T22:47:26.113Z,3.33
2023-08-12T22:49:52.522Z,2.97
2023-08-12T22:52:18.975Z,2.67
2023-08-12T22:54:45.335Z,3.70
2023-08-12T22:57:11.767Z,2.38
2023-08-12T22:59:38.165Z,3.47
2023-08-12T23:02:04.676Z,2.97
2023-08-12T23:04:31.019Z,2.75
2023-08-12T23:06:57.554Z,2.88
2023-08-12T23:09:23.939Z,2.97
2023-08-12T23:11:50.331Z,3.90
2023-08-12T23:14:16.659Z,2.63
2023-08-12T23:16:43.265Z,3.08
2023-08-12T23:19:12.059Z,3.47
2023-08-12T23:21:38.803Z,2.90
2023-08-12T23:24:05.352Z,3.45
2023-08-12T23:26:31.767Z,3.33
2023-08-12T23:28:58.161Z,3.83
2023-08-12T23:31:24.604Z,3.00
2023-08-12T23:33:51.006Z,3.15
2023-08-12T23:36:17.433Z,2.72
2023-08-12T23:38:43.935Z,3.30
2023-08-12T23:41:10.287Z,2.50
2023-08-12T23:43:36.714Z,2.47
2023-08-12T23:46:03.376Z,2.85
2023-08-12T23:48:30.314Z,2.85
2023-08-12T23:50:56.708Z,2.50
2023-08-12T23:53:23.340Z,2.80
2023-08-12T23:55:49.674Z,3.13
2023-08-12T23:58:16.485Z,3.10
